Aviation Digital Data Service (ADDS)

Output produced by TAFs form (2346 UTC 30 September 2016)
found at http://aviationweather.gov/adds/tafs/
 
KGUP 302338Z 0100/0124 22005KT P6SM FEW060 
     FM010200 VRB03KT P6SM FEW070 
     FM011700 25008KT P6SM SCT070